Time;durP1;ratioP1;P1;durP2;ratioP2;P2;SDS_P1;SDS_P2;PMS_P1;PMS_P2;Temp;Humidity;BMP_temperature;BMP_pressure;BME280_temperature;BME280_humidity;BME280_pressure;Samples;Min_cycle;Max_cycle;Signal;HPM_P1;HPM_P2
2021/12/30 00:00:24;;;;;;;5.47;3.73;;;6.70;99.90;6.60;99894.00;;;;5017612;27;118513;-71
2021/12/30 00:02:50;;;;;;;7.00;4.17;;;6.70;99.90;6.60;99884.00;;;;5033728;27;101737;-71
2021/12/30 00:05:16;;;;;;;5.03;3.10;;;6.80;99.90;6.70;99889.00;;;;5025615;27;87845;-72
2021/12/30 00:07:43;;;;;;;4.73;3.37;;;6.80;99.90;6.70;99886.00;;;;5035471;27;108579;-72
2021/12/30 00:10:10;;;;;;;3.90;2.90;;;6.80;99.90;6.70;99880.00;;;;5026961;27;87845;-72
2021/12/30 00:12:36;;;;;;;4.57;3.20;;;6.90;99.90;6.70;99886.00;;;;5035601;27;88369;-72
2021/12/30 00:15:05;;;;;;;4.90;3.10;;;6.80;99.90;6.70;99890.00;;;;5035131;27;90126;-72
2021/12/30 00:17:31;;;;;;;4.17;2.83;;;6.80;99.90;6.70;99891.00;;;;5017439;27;87787;-71
2021/12/30 00:19:57;;;;;;;4.63;3.13;;;6.80;99.90;6.70;99882.00;;;;5017242;27;89741;-71
2021/12/30 00:22:23;;;;;;;2.80;2.50;;;6.90;99.90;6.70;99888.00;;;;5019971;27;88534;-71
2021/12/30 00:24:49;;;;;;;5.37;3.13;;;6.90;99.90;6.70;99888.00;;;;5035817;27;87812;-71
2021/12/30 00:27:14;;;;;;;3.47;2.77;;;6.80;99.90;6.70;99883.00;;;;5036173;27;87785;-71
2021/12/30 00:29:40;;;;;;;5.37;3.23;;;6.80;99.90;6.70;99878.00;;;;5027444;27;116990;-70
2021/12/30 00:32:06;;;;;;;3.13;2.80;;;6.80;99.90;6.70;99884.00;;;;5032932;27;117413;-70
2021/12/30 00:34:32;;;;;;;4.97;3.10;;;6.80;99.90;6.70;99881.00;;;;5015983;27;87694;-71
2021/12/30 00:36:58;;;;;;;6.00;3.47;;;6.80;99.90;6.60;99873.00;;;;5039804;27;98785;-71
2021/12/30 00:39:24;;;;;;;3.97;3.00;;;6.80;99.90;6.60;99870.00;;;;5036595;27;112904;-71
2021/12/30 00:41:49;;;;;;;3.23;2.87;;;6.80;99.90;6.60;99873.00;;;;5033958;27;118888;-71
2021/12/30 00:44:15;;;;;;;3.47;2.43;;;6.70;99.90;6.60;99872.00;;;;5038676;27;87559;-71
2021/12/30 00:46:42;;;;;;;4.03;2.90;;;6.70;99.90;6.60;99870.00;;;;5038698;27;98315;-71
2021/12/30 00:49:09;;;;;;;3.30;2.90;;;6.70;99.90;6.60;99873.00;;;;5035785;27;95637;-70
2021/12/30 00:51:36;;;;;;;5.00;3.23;;;6.70;99.90;6.60;99873.00;;;;5032975;27;88557;-71
2021/12/30 00:54:02;;;;;;;5.70;3.17;;;6.70;99.90;6.60;99872.00;;;;5038088;27;87611;-70
2021/12/30 00:56:27;;;;;;;4.30;3.10;;;6.70;99.90;6.60;99874.00;;;;5039483;27;86879;-70
2021/12/30 00:58:53;;;;;;;4.07;3.43;;;6.70;99.90;6.60;99870.00;;;;5037045;27;118290;-72
2021/12/30 01:01:19;;;;;;;3.03;2.53;;;6.80;99.90;6.60;99883.00;;;;5021426;27;117986;-72
2021/12/30 01:03:45;;;;;;;4.00;3.13;;;6.70;99.90;6.60;99880.00;;;;5038196;27;88693;-73
2021/12/30 01:06:11;;;;;;;4.10;2.77;;;6.70;99.90;6.60;99884.00;;;;5038199;27;87663;-74
2021/12/30 01:08:38;;;;;;;5.97;2.70;;;6.70;99.90;6.60;99881.00;;;;5044015;27;116937;-71
2021/12/30 01:11:07;;;;;;;6.17;3.07;;;6.70;99.90;6.60;99878.00;;;;5032342;27;87828;-70
2021/12/30 01:13:39;;;;;;;4.03;3.17;;;6.70;99.90;6.60;99883.00;;;;5038202;27;87637;-70
2021/12/30 01:16:14;;;;;;;3.43;2.93;;;6.70;99.90;6.60;99883.00;;;;5020776;27;87969;-72
2021/12/30 01:18:54;;;;;;;4.67;3.30;;;6.70;99.90;6.60;99893.00;;;;5038787;27;88077;-72
2021/12/30 01:21:22;;;;;;;5.63;3.40;;;6.70;99.90;6.60;99902.00;;;;5012429;27;87155;-73
2021/12/30 01:23:47;;;;;;;4.20;3.23;;;6.70;99.90;6.60;99900.00;;;;5038016;27;87736;-73
2021/12/30 01:26:13;;;;;;;4.20;3.03;;;6.70;99.90;6.60;99901.00;;;;5037287;27;109294;-70
2021/12/30 01:28:40;;;;;;;4.83;3.30;;;6.70;99.90;6.60;99900.00;;;;5036166;27;120099;-73
2021/12/30 01:31:07;;;;;;;4.53;3.10;;;6.70;99.90;6.60;99896.00;;;;5020066;27;104431;-73
2021/12/30 01:33:33;;;;;;;4.80;3.67;;;6.80;99.90;6.60;99886.00;;;;5037933;27;87944;-72
2021/12/30 01:35:58;;;;;;;5.40;3.23;;;6.70;99.90;6.60;99892.00;;;;5038261;27;87639;-72
2021/12/30 01:38:24;;;;;;;3.33;3.03;;;6.80;99.90;6.60;99897.00;;;;5037418;27;87599;-73
2021/12/30 01:40:54;;;;;;;6.23;3.63;;;6.80;99.90;6.60;99890.00;;;;5020876;27;88401;-72
2021/12/30 01:43:20;;;;;;;3.47;2.63;;;6.70;99.90;6.60;99889.00;;;;5037686;27;87657;-72
2021/12/30 01:45:47;;;;;;;4.17;3.30;;;6.70;99.90;6.60;99897.00;;;;5018216;27;96026;-72
2021/12/30 01:48:13;;;;;;;5.63;3.50;;;6.70;99.90;6.60;99898.00;;;;5017172;27;116809;-70
2021/12/30 01:50:40;;;;;;;5.13;2.70;;;6.80;99.90;6.60;99903.00;;;;5021301;27;87889;-70
2021/12/30 01:53:06;;;;;;;3.77;2.77;;;6.80;99.90;6.70;99908.00;;;;5037020;27;88697;-70
2021/12/30 01:55:35;;;;;;;4.43;3.20;;;6.80;99.90;6.70;99912.00;;;;5037996;27;87889;-72
2021/12/30 01:58:03;;;;;;;3.87;2.80;;;6.80;99.90;6.70;99910.00;;;;5017912;27;103262;-70
2021/12/30 02:00:32;;;;;;;5.67;3.30;;;6.80;99.90;6.70;99907.00;;;;5028940;27;88365;-72
2021/12/30 02:02:58;;;;;;;6.70;3.17;;;6.80;99.90;6.70;99923.00;;;;5037419;27;87766;-71
2021/12/30 02:05:24;;;;;;;2.73;2.40;;;6.90;99.90;6.80;99916.00;;;;5038071;27;87719;-72
2021/12/30 02:07:50;;;;;;;5.33;2.77;;;6.90;99.90;6.80;99927.00;;;;5018242;27;109463;-73
2021/12/30 02:10:16;;;;;;;4.93;3.00;;;6.90;99.90;6.80;99936.00;;;;5006775;27;88066;-75
2021/12/30 02:12:43;;;;;;;5.77;2.63;;;6.90;99.90;6.90;99933.00;;;;5014756;27;87924;-74
2021/12/30 02:15:13;;;;;;;5.37;2.70;;;7.00;99.90;6.90;99929.00;;;;5035715;27;87869;-72
2021/12/30 02:17:39;;;;;;;3.47;2.57;;;7.00;99.90;6.90;99919.00;;;;5036346;27;89736;-74
2021/12/30 02:20:10;;;;;;;3.50;2.70;;;7.00;99.90;7.00;99911.00;;;;5007993;27;89904;-71
2021/12/30 02:22:36;;;;;;;4.50;1.93;;;7.10;99.90;7.00;99908.00;;;;5036639;27;97408;-73
2021/12/30 02:25:04;;;;;;;2.93;2.60;;;7.10;99.90;7.00;99921.00;;;;5018163;27;87716;-75
2021/12/30 02:27:31;;;;;;;2.90;2.07;;;7.10;99.90;7.10;99911.00;;;;5036641;27;88931;-73
2021/12/30 02:29:57;;;;;;;3.57;2.80;;;7.20;99.90;7.10;99921.00;;;;5027360;27;105767;-74
2021/12/30 02:32:25;;;;;;;3.40;2.40;;;7.20;99.90;7.10;99923.00;;;;5017950;27;90952;-73
2021/12/30 02:34:51;;;;;;;4.30;2.30;;;7.20;99.90;7.10;99920.00;;;;5036756;27;87149;-77
2021/12/30 02:37:19;;;;;;;10.97;2.20;;;7.20;99.90;7.20;99922.00;;;;5000283;27;106500;-76
2021/12/30 02:39:52;;;;;;;2.83;1.80;;;7.90;99.90;7.20;99928.00;;;;5021919;27;92248;-76
2021/12/30 02:42:24;;;;;;;2.30;1.70;;;7.30;99.90;7.20;99924.00;;;;5035753;27;88638;-75
2021/12/30 02:44:51;;;;;;;3.73;2.50;;;7.30;99.90;7.20;99928.00;;;;5017286;27;87718;-75
2021/12/30 02:47:17;;;;;;;3.97;2.47;;;7.30;99.90;7.30;99924.00;;;;5035543;27;102971;-78
2021/12/30 02:49:43;;;;;;;2.53;2.20;;;7.30;99.90;7.30;99911.00;;;;5007324;27;88028;-75
2021/12/30 02:52:09;;;;;;;2.63;1.90;;;7.40;99.90;7.30;99912.00;;;;4998853;27;87826;-78
2021/12/30 02:54:39;;;;;;;3.87;2.10;;;7.40;99.90;7.30;99909.00;;;;4996600;27;91712;-79
2021/12/30 02:57:05;;;;;;;2.33;1.80;;;7.50;99.90;7.40;99900.00;;;;4996863;27;89515;-79
2021/12/30 02:59:31;;;;;;;2.77;1.60;;;7.40;99.90;7.40;99891.00;;;;4988392;28;101649;-79
2021/12/30 03:01:56;;;;;;;2.30;2.07;;;7.50;99.90;7.40;99897.00;;;;5009183;27;87938;-78
2021/12/30 03:04:22;;;;;;;1.93;1.83;;;7.50;99.90;7.40;99918.00;;;;5033781;27;108719;-79
2021/12/30 03:06:51;;;;;;;1.83;1.57;;;7.50;99.90;7.50;99911.00;;;;5015939;27;89166;-81
2021/12/30 03:09:17;;;;;;;2.73;1.60;;;7.60;99.90;7.50;99902.00;;;;5032558;27;88139;-78
2021/12/30 03:11:43;;;;;;;1.90;1.70;;;7.60;99.90;7.50;99916.00;;;;5031709;27;87673;-80
2021/12/30 03:14:09;;;;;;;3.00;1.67;;;7.60;99.90;7.60;99901.00;;;;5016790;27;87754;-76
2021/12/30 03:16:37;;;;;;;4.53;2.20;;;7.60;99.90;7.60;99918.00;;;;5017001;27;90792;-81
2021/12/30 03:19:04;;;;;;;3.17;1.93;;;7.60;99.90;7.60;99923.00;;;;5015658;27;87954;-79
2021/12/30 03:21:31;;;;;;;1.67;1.57;;;7.70;99.90;7.60;99915.00;;;;5014483;27;87650;-78
2021/12/30 03:24:01;;;;;;;2.33;1.60;;;7.70;99.90;7.70;99919.00;;;;5013801;27;94214;-79
2021/12/30 03:26:27;;;;;;;1.73;1.43;;;7.70;99.90;7.70;99935.00;;;;4999713;27;90782;-77
2021/12/30 03:28:53;;;;;;;1.63;1.20;;;7.80;99.90;7.80;99945.00;;;;5034451;27;104401;-81
2021/12/30 03:31:21;;;;;;;3.00;1.60;;;7.80;99.90;7.80;99960.00;;;;4996389;27;88715;-82
2021/12/30 03:33:49;;;;;;;2.87;1.53;;;7.90;99.90;7.90;99963.00;;;;4995565;27;95683;-80
2021/12/30 03:36:18;;;;;;;2.73;1.97;;;7.90;99.90;7.90;99971.00;;;;5016660;27;88671;-81
2021/12/30 03:38:50;;;;;;;1.97;1.63;;;8.00;99.90;8.00;99972.00;;;;5035037;27;100877;-79
2021/12/30 03:41:20;;;;;;;2.10;1.60;;;8.00;99.90;8.00;99992.00;;;;5008162;27;88074;-79
2021/12/30 03:43:46;;;;;;;2.20;1.60;;;8.10;99.90;8.00;99989.00;;;;4999842;27;87820;-79
2021/12/30 03:46:12;;;;;;;1.97;1.83;;;8.10;99.90;8.10;99998.00;;;;4999711;27;90762;-78
2021/12/30 03:48:42;;;;;;;1.93;1.70;;;8.10;99.90;8.10;99984.00;;;;5016827;27;87268;-82
2021/12/30 03:51:14;;;;;;;4.20;2.10;;;8.20;99.90;8.10;100004.00;;;;5007487;27;87863;-79
2021/12/30 03:53:42;;;;;;;2.60;2.20;;;8.20;99.90;8.10;100009.00;;;;5017110;27;88888;-78
2021/12/30 03:56:11;;;;;;;2.90;2.60;;;8.20;99.90;8.10;100009.00;;;;5015834;27;89083;-78
2021/12/30 03:58:39;;;;;;;4.87;2.73;;;8.20;99.90;8.10;100011.00;;;;5034769;27;88198;-78
2021/12/30 04:01:06;;;;;;;5.43;2.50;;;8.20;99.90;8.20;100013.00;;;;5006723;27;87748;-78
2021/12/30 04:03:32;;;;;;;4.83;3.20;;;8.30;99.90;8.20;100010.00;;;;5015994;27;88731;-77
2021/12/30 04:05:57;;;;;;;2.90;2.43;;;8.30;99.90;8.20;100018.00;;;;5016299;27;90838;-77
2021/12/30 04:08:23;;;;;;;3.00;2.13;;;8.30;99.90;8.30;100015.00;;;;4998109;27;119268;-77
2021/12/30 04:10:49;;;;;;;6.17;2.40;;;8.30;99.90;8.30;100010.00;;;;5007081;27;109501;-77
2021/12/30 04:13:15;;;;;;;3.40;2.30;;;8.40;99.90;8.30;100025.00;;;;4996166;27;87329;-77
2021/12/30 04:15:41;;;;;;;4.00;2.47;;;8.40;99.90;8.40;100028.00;;;;5003483;27;118032;-78
2021/12/30 04:18:07;;;;;;;3.50;2.10;;;8.50;99.90;8.40;100053.00;;;;5015334;27;118003;-77
2021/12/30 04:20:32;;;;;;;5.80;2.37;;;8.40;99.90;8.40;100054.00;;;;5003462;27;110728;-78
2021/12/30 04:22:58;;;;;;;3.27;2.70;;;9.60;99.90;8.40;100054.00;;;;5032339;27;93085;-75
2021/12/30 04:25:24;;;;;;;4.30;3.07;;;8.50;99.90;8.40;100049.00;;;;5034634;27;87843;-75
2021/12/30 04:27:49;;;;;;;2.97;2.33;;;8.50;99.90;8.40;100041.00;;;;5015958;27;100113;-74
2021/12/30 04:30:16;;;;;;;3.77;2.60;;;8.50;99.90;8.50;100058.00;;;;5006550;27;110843;-76
2021/12/30 04:32:43;;;;;;;2.60;2.40;;;8.50;99.90;8.50;100061.00;;;;5015431;27;108162;-75
2021/12/30 04:35:10;;;;;;;3.90;2.90;;;8.50;99.90;8.50;100077.00;;;;5015843;27;88658;-76
2021/12/30 04:37:36;;;;;;;3.00;2.43;;;8.60;99.90;8.50;100066.00;;;;5016113;27;88408;-76
2021/12/30 04:40:04;;;;;;;4.87;2.77;;;8.60;99.90;8.60;100074.00;;;;5006013;27;88094;-77
2021/12/30 04:42:30;;;;;;;3.43;2.43;;;8.60;99.90;8.60;100076.00;;;;5016541;27;87732;-74
2021/12/30 04:44:56;;;;;;;4.43;3.00;;;8.60;99.90;8.60;100079.00;;;;5013801;27;119634;-76
2021/12/30 04:47:22;;;;;;;4.43;2.80;;;8.70;99.90;8.60;100091.00;;;;5015471;27;88623;-75
2021/12/30 04:49:49;;;;;;;3.10;2.17;;;9.10;99.90;8.60;100091.00;;;;5003804;27;87868;-75
2021/12/30 04:52:15;;;;;;;4.77;2.87;;;8.70;99.90;8.60;100103.00;;;;5014389;27;87867;-74
2021/12/30 04:54:41;;;;;;;4.47;2.87;;;8.70;99.90;8.60;100109.00;;;;5012301;27;88343;-74
2021/12/30 04:57:06;;;;;;;3.87;2.60;;;8.70;99.90;8.70;100106.00;;;;5014572;27;87776;-76
2021/12/30 04:59:32;;;;;;;6.17;2.47;;;8.70;99.90;8.70;100108.00;;;;5006124;27;110926;-74
2021/12/30 05:01:58;;;;;;;5.70;2.63;;;8.70;99.90;8.70;100115.00;;;;5031862;27;108768;-75
2021/12/30 05:04:24;;;;;;;2.60;1.90;;;8.80;99.90;8.70;100123.00;;;;5034192;27;88501;-75
2021/12/30 05:06:50;;;;;;;2.40;2.20;;;8.80;99.90;8.80;100127.00;;;;5034713;27;88055;-75
2021/12/30 05:09:16;;;;;;;5.13;2.53;;;8.80;99.90;8.80;100118.00;;;;5025729;27;109520;-75
2021/12/30 05:11:42;;;;;;;4.37;3.10;;;8.90;99.90;8.80;100124.00;;;;5028038;27;107702;-75
2021/12/30 05:14:12;;;;;;;5.13;3.03;;;8.90;99.90;8.90;100122.00;;;;5034394;27;88301;-75
2021/12/30 05:16:39;;;;;;;4.43;2.80;;;9.00;99.90;8.90;100114.00;;;;5035266;27;87900;-74
2021/12/30 05:19:05;;;;;;;2.37;1.90;;;8.90;99.90;8.90;100119.00;;;;4996657;27;88072;-74
2021/12/30 05:21:32;;;;;;;4.57;2.33;;;9.00;99.90;8.90;100128.00;;;;5010342;27;91146;-74
2021/12/30 05:23:58;;;;;;;4.97;2.20;;;10.50;99.90;8.90;100134.00;;;;5012193;27;88943;-74
2021/12/30 05:26:27;;;;;;;3.87;3.20;;;9.80;99.90;8.90;100122.00;;;;5035437;27;88159;-74
2021/12/30 05:28:58;;;;;;;5.47;2.57;;;9.00;99.90;8.90;100118.00;;;;5000653;27;87798;-75
2021/12/30 05:31:25;;;;;;;3.77;2.87;;;9.00;99.90;8.90;100125.00;;;;5014416;27;88094;-75
2021/12/30 05:33:51;;;;;;;7.50;3.30;;;9.00;99.90;8.80;100133.00;;;;5033538;27;88912;-74
2021/12/30 05:36:18;;;;;;;3.33;3.03;;;8.90;99.90;8.80;100130.00;;;;5037584;27;89538;-73
2021/12/30 05:38:44;;;;;;;2.93;2.23;;;8.90;99.90;8.80;100130.00;;;;5037625;27;93447;-73
2021/12/30 05:41:10;;;;;;;3.37;2.37;;;8.90;99.90;8.80;100126.00;;;;4999017;27;87797;-73
2021/12/30 05:43:36;;;;;;;5.77;2.60;;;8.90;99.90;8.80;100131.00;;;;5036283;27;118182;-73
2021/12/30 05:46:01;;;;;;;3.60;2.23;;;8.80;99.90;8.80;100141.00;;;;5035811;27;118789;-73
2021/12/30 05:48:28;;;;;;;5.23;2.93;;;8.90;99.90;8.80;100142.00;;;;5036979;27;110506;-73
2021/12/30 05:50:54;;;;;;;4.03;2.67;;;8.90;99.90;8.80;100147.00;;;;5020688;27;107372;-72
2021/12/30 05:53:20;;;;;;;4.57;3.07;;;8.90;99.90;8.80;100153.00;;;;5017840;27;89467;-72
2021/12/30 05:55:46;;;;;;;3.80;2.33;;;8.90;99.90;8.90;100156.00;;;;5036881;27;88202;-72
2021/12/30 05:58:12;;;;;;;4.17;2.63;;;8.90;99.90;8.90;100163.00;;;;5036120;27;110239;-72
2021/12/30 06:00:38;;;;;;;4.10;2.93;;;8.90;99.90;9.00;100169.00;;;;5020622;27;93909;-71
2021/12/30 06:03:04;;;;;;;3.57;2.17;;;9.00;99.90;9.00;100165.00;;;;5037161;27;102470;-71
2021/12/30 06:05:30;;;;;;;5.43;2.43;;;9.10;99.90;9.00;100161.00;;;;5001738;27;89204;-71
2021/12/30 06:07:56;;;;;;;4.07;2.87;;;9.20;99.90;9.00;100169.00;;;;5037951;27;90163;-73
2021/12/30 06:10:22;;;;;;;4.13;2.77;;;9.10;99.90;9.00;100173.00;;;;5021430;27;87956;-71
2021/12/30 06:12:47;;;;;;;5.33;3.10;;;9.10;99.90;9.00;100170.00;;;;5037258;27;88769;-70
2021/12/30 06:15:14;;;;;;;5.93;3.20;;;9.10;99.90;9.10;100181.00;;;;5036991;27;88864;-71
2021/12/30 06:17:41;;;;;;;3.83;2.97;;;9.10;99.90;9.10;100178.00;;;;5037992;27;87891;-71
2021/12/30 06:20:13;;;;;;;4.43;2.73;;;9.20;99.90;9.10;100169.00;;;;5020584;27;87988;-70
2021/12/30 06:22:40;;;;;;;5.93;3.00;;;9.20;99.90;9.20;100194.00;;;;5037166;27;89101;-72
2021/12/30 06:25:06;;;;;;;4.20;2.90;;;9.20;99.90;9.20;100185.00;;;;5035544;27;89446;-70
2021/12/30 06:27:32;;;;;;;6.20;2.80;;;9.30;99.90;9.20;100185.00;;;;5036547;27;95876;-70
2021/12/30 06:29:58;;;;;;;3.17;2.27;;;9.30;99.90;9.20;100177.00;;;;5021194;27;87692;-70
2021/12/30 06:32:24;;;;;;;4.73;2.87;;;9.30;99.90;9.30;100180.00;;;;5036511;27;89012;-70
2021/12/30 06:34:49;;;;;;;5.07;2.50;;;9.30;99.90;9.30;100172.00;;;;5035846;27;117942;-71
2021/12/30 06:37:15;;;;;;;3.90;2.60;;;9.40;99.90;9.30;100179.00;;;;5037105;27;110106;-70
2021/12/30 06:39:41;;;;;;;3.27;2.30;;;9.40;99.90;9.30;100186.00;;;;5022155;27;108583;-71
2021/12/30 06:42:06;;;;;;;7.03;2.73;;;9.40;99.90;9.40;100189.00;;;;5014707;27;108403;-71
2021/12/30 06:44:32;;;;;;;5.67;2.67;;;9.40;99.90;9.30;100198.00;;;;5035898;27;119304;-71
2021/12/30 06:47:00;;;;;;;5.07;3.10;;;9.40;99.90;9.40;100206.00;;;;5036303;27;93856;-71
2021/12/30 06:49:34;;;;;;;3.00;2.70;;;9.50;99.90;9.40;100205.00;;;;5032045;27;87993;-70
2021/12/30 06:51:59;;;;;;;4.43;2.73;;;9.50;99.90;9.40;100207.00;;;;5034889;27;88011;-70
2021/12/30 06:54:25;;;;;;;2.80;2.23;;;9.50;99.90;9.50;100200.00;;;;5036015;27;116836;-70
2021/12/30 06:56:55;;;;;;;4.77;2.53;;;9.50;99.90;9.50;100215.00;;;;5018117;27;88999;-71
2021/12/30 06:59:21;;;;;;;4.87;2.70;;;9.50;99.90;9.50;100209.00;;;;5033008;27;87874;-69
2021/12/30 07:01:47;;;;;;;5.40;3.03;;;9.60;99.90;9.50;100214.00;;;;5032099;27;102006;-69
2021/12/30 07:04:13;;;;;;;7.40;2.87;;;9.50;99.90;9.50;100213.00;;;;5034191;27;89011;-69
2021/12/30 07:06:39;;;;;;;7.73;2.90;;;9.90;99.90;9.40;100222.00;;;;5033259;27;108079;-69
2021/12/30 07:09:06;;;;;;;4.40;2.53;;;9.50;99.90;9.40;100223.00;;;;5031591;27;87955;-70
2021/12/30 07:11:31;;;;;;;4.90;2.37;;;9.50;99.90;9.40;100234.00;;;;5025273;27;119071;-70
2021/12/30 07:13:57;;;;;;;3.87;2.27;;;9.50;99.90;9.30;100231.00;;;;5031889;27;118212;-70
2021/12/30 07:16:23;;;;;;;4.90;2.30;;;9.40;99.90;9.30;100235.00;;;;5032650;27;106485;-72
2021/12/30 07:18:49;;;;;;;8.20;2.70;;;9.40;99.90;9.20;100238.00;;;;5032978;27;87757;-70
2021/12/30 07:21:15;;;;;;;3.77;2.27;;;9.30;99.90;9.10;100242.00;;;;5031861;27;101627;-70
2021/12/30 07:23:41;;;;;;;4.87;2.63;;;9.20;99.90;9.10;100259.00;;;;5020233;27;88031;-70
2021/12/30 07:26:06;;;;;;;5.13;3.23;;;9.20;99.90;9.00;100256.00;;;;5033825;27;87874;-69
2021/12/30 07:28:32;;;;;;;4.53;2.80;;;9.20;99.90;9.00;100259.00;;;;5013288;27;109039;-69
2021/12/30 07:30:58;;;;;;;5.77;2.67;;;9.10;99.90;9.10;100256.00;;;;5008595;27;116533;-70
2021/12/30 07:33:23;;;;;;;3.30;2.53;;;9.10;99.90;9.10;100266.00;;;;5024747;27;88482;-70
2021/12/30 07:35:49;;;;;;;3.53;2.23;;;9.20;99.90;9.10;100272.00;;;;5031420;27;110691;-69
2021/12/30 07:38:15;;;;;;;2.67;1.80;;;9.20;99.90;9.20;100269.00;;;;5033709;27;87691;-69
2021/12/30 07:40:41;;;;;;;3.20;2.57;;;9.30;99.90;9.20;100271.00;;;;5027552;27;118823;-69
2021/12/30 07:43:06;;;;;;;3.60;2.40;;;9.30;99.90;9.30;100270.00;;;;5023439;27;116357;-69
2021/12/30 07:45:32;;;;;;;5.10;3.03;;;9.30;99.90;9.20;100273.00;;;;5031684;27;110756;-69
2021/12/30 07:47:58;;;;;;;4.27;2.60;;;9.30;99.90;9.20;100280.00;;;;5032499;27;108713;-69
2021/12/30 07:50:23;;;;;;;5.30;2.93;;;9.30;99.90;9.20;100280.00;;;;5030583;27;117943;-69
2021/12/30 07:52:50;;;;;;;3.23;2.43;;;9.30;99.90;9.20;100286.00;;;;5024669;27;88631;-69
2021/12/30 07:55:16;;;;;;;7.70;2.87;;;9.30;99.90;9.20;100281.00;;;;5032642;27;87781;-70
2021/12/30 07:57:43;;;;;;;3.63;2.00;;;9.30;99.90;9.20;100265.00;;;;5025828;27;87786;-71
2021/12/30 08:00:14;;;;;;;3.50;2.80;;;9.30;99.90;9.20;100274.00;;;;5032832;27;88848;-69
2021/12/30 08:02:42;;;;;;;8.53;2.90;;;9.40;99.90;9.30;100276.00;;;;5024996;27;89229;-71
2021/12/30 08:05:15;;;;;;;3.20;2.60;;;9.30;99.90;9.30;100288.00;;;;5031961;27;87804;-69
2021/12/30 08:07:42;;;;;;;3.37;2.57;;;9.30;99.90;9.30;100292.00;;;;5032505;27;94605;-71
2021/12/30 08:10:12;;;;;;;4.67;3.33;;;9.40;99.90;9.30;100277.00;;;;5022784;27;88517;-71
2021/12/30 08:12:39;;;;;;;5.00;2.77;;;9.40;99.90;9.30;100280.00;;;;5014415;27;89118;-70
2021/12/30 08:15:06;;;;;;;3.77;2.83;;;9.00;99.90;9.40;100288.00;;;;5029234;27;94215;-72
2021/12/30 08:17:33;;;;;;;4.60;2.97;;;9.50;99.90;9.50;100288.00;;;;5032356;27;88095;-70
2021/12/30 08:19:59;;;;;;;4.17;2.60;;;9.50;99.90;9.50;100288.00;;;;5032218;27;103509;-70
2021/12/30 08:22:24;;;;;;;4.20;2.43;;;9.50;99.90;9.50;100288.00;;;;5026140;27;117116;-72
2021/12/30 08:24:50;;;;;;;5.07;2.37;;;9.90;99.90;9.60;100290.00;;;;5027136;27;110288;-70
2021/12/30 08:27:16;;;;;;;5.67;3.40;;;9.60;99.90;9.60;100304.00;;;;5031672;27;108385;-71
2021/12/30 08:29:43;;;;;;;6.13;2.77;;;9.60;99.90;9.70;100299.00;;;;5012437;27;108855;-71
2021/12/30 08:32:13;;;;;;;3.10;2.70;;;9.70;99.90;9.70;100314.00;;;;5029254;27;104337;-72
2021/12/30 08:34:40;;;;;;;5.33;2.33;;;9.80;99.90;9.70;100315.00;;;;5025678;27;88310;-71
2021/12/30 08:37:05;;;;;;;6.30;2.77;;;9.80;99.90;9.80;100332.00;;;;5031882;27;94931;-72
2021/12/30 08:39:35;;;;;;;4.27;2.50;;;9.80;99.90;9.80;100341.00;;;;5031827;27;117846;-72
2021/12/30 08:42:00;;;;;;;5.77;2.90;;;9.80;99.90;9.80;100334.00;;;;5030918;27;87669;-70
2021/12/30 08:44:26;;;;;;;5.53;1.90;;;9.90;99.90;9.90;100341.00;;;;5024929;27;87859;-72
2021/12/30 08:46:52;;;;;;;3.50;2.37;;;9.90;99.90;9.90;100346.00;;;;5031958;27;87821;-70
2021/12/30 08:49:18;;;;;;;3.67;2.50;;;9.90;99.90;9.90;100330.00;;;;5029770;27;117889;-73
2021/12/30 08:51:44;;;;;;;4.87;2.27;;;10.00;99.90;9.90;100323.00;;;;5030732;27;118265;-72
2021/12/30 08:54:09;;;;;;;6.63;2.77;;;10.00;99.90;10.00;100313.00;;;;5023405;27;89617;-72
2021/12/30 08:56:35;;;;;;;3.57;2.57;;;10.00;99.90;10.00;100314.00;;;;5028105;27;108976;-71
2021/12/30 08:59:01;;;;;;;4.13;2.83;;;10.10;99.90;10.10;100308.00;;;;5030749;27;103024;-71
2021/12/30 09:01:27;;;;;;;3.07;2.50;;;10.10;99.90;10.20;100295.00;;;;5026082;27;100879;-72
2021/12/30 09:03:53;;;;;;;4.33;2.50;;;10.40;99.90;10.20;100301.00;;;;5011781;27;88234;-73
2021/12/30 09:06:19;;;;;;;3.17;1.97;;;10.20;99.90;10.30;100296.00;;;;5036122;27;87385;-72
2021/12/30 09:08:45;;;;;;;2.73;2.23;;;10.30;99.90;10.30;100306.00;;;;5034439;27;88632;-72
2021/12/30 09:11:11;;;;;;;4.37;2.50;;;10.40;99.90;10.40;100309.00;;;;5016060;27;88820;-71
2021/12/30 09:13:36;;;;;;;2.70;2.23;;;10.40;99.90;10.40;100311.00;;;;5018622;27;95034;-72
2021/12/30 09:16:03;;;;;;;3.07;1.97;;;10.50;99.90;10.50;100318.00;;;;5029847;27;109001;-72
2021/12/30 09:18:29;;;;;;;3.40;1.73;;;10.50;99.90;10.50;100331.00;;;;5034414;27;88532;-71
2021/12/30 09:20:55;;;;;;;2.70;1.97;;;10.50;99.90;10.50;100332.00;;;;5031108;27;88338;-71
2021/12/30 09:23:20;;;;;;;4.97;2.37;;;10.60;99.90;10.50;100339.00;;;;5027003;27;87775;-71
2021/12/30 09:25:46;;;;;;;6.43;2.03;;;10.60;99.90;10.60;100348.00;;;;4998385;27;96222;-72
2021/12/30 09:28:12;;;;;;;4.80;2.60;;;10.60;99.90;10.60;100345.00;;;;5034960;27;87868;-70
2021/12/30 09:30:41;;;;;;;5.07;2.60;;;10.60;99.90;10.60;100348.00;;;;5035062;27;88803;-70
2021/12/30 09:33:07;;;;;;;2.90;2.07;;;10.70;99.90;10.60;100333.00;;;;5017940;27;87822;-71
2021/12/30 09:35:33;;;;;;;7.53;2.17;;;10.70;99.90;10.70;100333.00;;;;5034873;27;89026;-70
2021/12/30 09:37:59;;;;;;;5.57;2.20;;;10.70;99.90;10.80;100319.00;;;;5033831;27;101089;-73
2021/12/30 09:40:26;;;;;;;4.60;2.43;;;10.80;99.90;10.80;100322.00;;;;5033769;27;118558;-72
2021/12/30 09:43:01;;;;;;;6.07;2.40;;;10.80;99.90;10.90;100309.00;;;;5026457;27;87717;-72
2021/12/30 09:45:36;;;;;;;4.90;2.13;;;10.90;99.90;11.00;100294.00;;;;5033889;27;87733;-72
2021/12/30 09:48:07;;;;;;;2.43;1.50;;;11.00;99.90;11.10;100290.00;;;;5034243;27;88297;-73
2021/12/30 09:50:50;;;;;;;6.37;2.60;;;11.00;99.90;11.20;100299.00;;;;5015622;27;87964;-73
2021/12/30 09:53:23;;;;;;;2.53;1.67;;;11.20;99.90;11.40;100292.00;;;;4995825;27;87996;-71
2021/12/30 09:55:51;;;;;;;4.23;2.10;;;11.30;99.90;11.50;100306.00;;;;5007000;27;94758;-73
2021/12/30 09:58:18;;;;;;;2.40;1.57;;;11.50;99.90;11.50;100301.00;;;;5033884;27;88686;-73
2021/12/30 10:00:45;;;;;;;2.07;1.60;;;11.50;99.90;11.60;100313.00;;;;5016593;27;88100;-73
2021/12/30 10:03:11;;;;;;;4.63;1.80;;;11.60;99.90;11.60;100302.00;;;;5018133;27;88810;-71
2021/12/30 10:05:39;;;;;;;4.20;1.67;;;11.60;99.90;11.60;100306.00;;;;5033798;27;107567;-73
2021/12/30 10:08:21;;;;;;;4.07;1.80;;;11.60;99.90;11.60;100302.00;;;;5034111;27;89437;-72
2021/12/30 10:10:52;;;;;;;4.20;1.70;;;11.70;99.90;11.60;100295.00;;;;5015575;27;94361;-72
2021/12/30 10:13:33;;;;;;;1.93;1.67;;;11.60;99.90;11.60;100312.00;;;;5011354;27;87725;-72
2021/12/30 10:16:03;;;;;;;2.77;1.73;;;11.60;99.90;11.60;100315.00;;;;5010066;27;88037;-72
2021/12/30 10:18:55;;;;;;;3.23;1.47;;;11.60;99.90;11.60;100306.00;;;;5014244;27;88031;-73
2021/12/30 10:21:25;;;;;;;3.17;1.83;;;11.60;99.90;11.60;100306.00;;;;5015734;27;88709;-74
2021/12/30 10:23:54;;;;;;;5.07;2.03;;;11.70;99.90;11.70;100304.00;;;;4994157;27;92222;-72
2021/12/30 10:26:20;;;;;;;2.73;1.60;;;11.70;99.90;11.80;100298.00;;;;5026028;27;87824;-73
2021/12/30 10:28:53;;;;;;;3.07;2.07;;;11.80;99.90;11.80;100292.00;;;;5032914;27;94926;-73
2021/12/30 10:31:31;;;;;;;2.30;1.53;;;11.80;99.90;11.80;100301.00;;;;5015231;27;88140;-72
2021/12/30 10:34:07;;;;;;;6.83;1.80;;;11.90;99.90;11.90;100302.00;;;;5012252;27;87631;-70
2021/12/30 10:36:47;;;;;;;5.63;1.67;;;11.90;99.90;11.80;100303.00;;;;5034037;27;87814;-71
2021/12/30 10:39:32;;;;;;;2.47;1.70;;;12.00;99.90;11.90;100311.00;;;;5014630;27;88526;-71
2021/12/30 10:42:09;;;;;;;4.30;1.57;;;12.00;99.90;11.80;100305.00;;;;4994081;27;89252;-72
2021/12/30 10:44:52;;;;;;;1.73;1.37;;;11.90;99.90;11.80;100311.00;;;;5028069;27;88420;-71
2021/12/30 10:47:19;;;;;;;5.40;1.67;;;11.90;99.90;11.80;100320.00;;;;5033638;27;87076;-72
2021/12/30 10:50:08;;;;;;;2.40;1.70;;;11.80;99.90;11.80;100311.00;;;;5033753;27;88309;-72
2021/12/30 10:52:34;;;;;;;4.30;2.30;;;11.90;99.90;11.90;100308.00;;;;5026016;27;99695;-72
2021/12/30 10:55:12;;;;;;;3.43;1.93;;;11.90;99.90;11.80;100305.00;;;;5011737;27;88891;-72
2021/12/30 10:57:38;;;;;;;3.50;1.80;;;11.90;99.90;11.80;100308.00;;;;4994473;27;88170;-72
2021/12/30 11:00:08;;;;;;;1.43;1.30;;;11.90;99.90;11.80;100296.00;;;;5033732;27;87998;-74